Time;durP1;ratioP1;P1;durP2;ratioP2;P2;SDS_P1;SDS_P2;PMS_P1;PMS_P2;Temp;Humidity;BMP_temperature;BMP_pressure;BME280_temperature;BME280_humidity;BME280_pressure;Samples;Min_cycle;Max_cycle;Signal;HPM_P1;HPM_P2
2022/06/17 00:01:30;;;;;;;6.70;2.25;;;17.00;77.70;;;;;;5011757;28;20046;-86
2022/06/17 00:03:56;;;;;;;5.50;1.83;;;16.90;78.00;;;;;;5011635;28;20463;-83
2022/06/17 00:06:24;;;;;;;4.32;1.80;;;16.80;78.40;;;;;;5011219;28;20038;-87
2022/06/17 00:08:52;;;;;;;5.65;2.42;;;16.80;78.60;;;;;;5011566;28;20538;-85
2022/06/17 00:11:30;;;;;;;4.90;2.40;;;16.80;78.80;;;;;;5011668;28;20034;-85
2022/06/17 00:13:55;;;;;;;5.47;2.58;;;16.70;79.20;;;;;;5011676;28;20033;-88
2022/06/17 00:16:22;;;;;;;5.28;2.15;;;16.70;78.90;;;;;;5011748;28;20374;-85
2022/06/17 00:18:49;;;;;;;6.38;2.35;;;16.70;79.70;;;;;;5012180;28;20026;-87
2022/06/17 00:21:39;;;;;;;4.72;2.20;;;16.60;79.90;;;;;;5011752;28;20065;-86
2022/06/17 00:24:32;;;;;;;5.93;2.65;;;16.60;80.20;;;;;;5011351;28;20112;-85
2022/06/17 00:26:58;;;;;;;6.05;2.10;;;16.60;80.40;;;;;;5010229;28;20041;-85
2022/06/17 00:29:27;;;;;;;6.15;2.30;;;16.50;80.90;;;;;;5011106;28;20041;-85
2022/06/17 00:31:53;;;;;;;4.78;2.83;;;16.50;80.90;;;;;;5010901;28;20113;-84
2022/06/17 00:34:19;;;;;;;11.10;2.80;;;16.50;81.10;;;;;;5011022;28;20120;-84
2022/06/17 00:36:45;;;;;;;5.78;3.00;;;16.50;81.00;;;;;;5010517;28;20018;-85
2022/06/17 00:39:17;;;;;;;6.00;3.28;;;16.40;81.20;;;;;;5011469;28;20026;-84
2022/06/17 00:41:47;;;;;;;16.98;4.47;;;16.40;81.40;;;;;;5010789;28;20077;-84
2022/06/17 00:44:40;;;;;;;16.60;3.25;;;16.30;82.30;;;;;;5011136;28;20030;-83
2022/06/17 00:47:23;;;;;;;8.95;2.67;;;16.40;81.70;;;;;;5010962;28;20058;-82
2022/06/17 00:49:59;;;;;;;13.55;3.30;;;16.30;81.70;;;;;;5009805;28;20112;-84
2022/06/17 00:53:05;;;;;;;9.02;3.33;;;16.30;82.20;;;;;;5010933;28;20053;-84
2022/06/17 00:55:42;;;;;;;8.65;3.00;;;16.30;82.40;;;;;;5000852;28;20030;-85
2022/06/17 00:58:21;;;;;;;6.70;2.80;;;16.30;82.50;;;;;;5010960;28;20094;-83
2022/06/17 01:00:51;;;;;;;8.40;2.78;;;16.20;82.80;;;;;;5011689;28;20259;-85
2022/06/17 01:03:23;;;;;;;8.70;2.75;;;16.20;83.30;;;;;;5010979;28;20053;-88
2022/06/17 01:05:53;;;;;;;6.20;2.78;;;16.20;83.50;;;;;;5012139;28;20030;-84
2022/06/17 01:11:18;;;;;;;7.05;2.53;;;16.20;83.80;;;;;;5010977;28;20037;-83
2022/06/17 01:13:48;;;;;;;8.38;2.85;;;16.10;84.10;;;;;;5010943;28;20181;-85
2022/06/17 01:16:14;;;;;;;4.05;2.60;;;16.10;84.40;;;;;;5011042;28;20036;-85
2022/06/17 01:18:43;;;;;;;10.07;2.63;;;16.00;84.40;;;;;;5011363;28;20798;-86
2022/06/17 01:21:19;;;;;;;7.05;2.28;;;16.10;84.40;;;;;;5010637;28;20106;-86
2022/06/17 01:23:46;;;;;;;6.03;2.65;;;16.00;85.10;;;;;;5012509;28;20547;-85
2022/06/17 01:26:12;;;;;;;6.47;2.78;;;15.90;85.40;;;;;;5021367;28;20025;-83
2022/06/17 01:28:38;;;;;;;6.72;2.58;;;15.80;85.90;;;;;;5015507;28;20022;-84
2022/06/17 01:31:05;;;;;;;7.00;2.70;;;15.80;86.20;;;;;;5016760;28;20028;-84
2022/06/17 01:33:41;;;;;;;9.43;2.38;;;15.70;86.30;;;;;;5017109;28;20045;-83
2022/06/17 01:36:20;;;;;;;6.05;2.88;;;15.80;86.60;;;;;;5015653;28;20030;-83
2022/06/17 01:38:49;;;;;;;8.77;2.88;;;15.60;86.60;;;;;;5014108;28;20038;-83
2022/06/17 01:41:17;;;;;;;10.50;3.20;;;15.60;87.10;;;;;;5014303;28;20038;-84
2022/06/17 01:43:45;;;;;;;5.65;2.83;;;15.60;87.30;;;;;;5014357;28;20030;-82
2022/06/17 01:46:25;;;;;;;6.10;2.45;;;15.60;87.50;;;;;;5003651;28;20030;-82
2022/06/17 01:49:00;;;;;;;7.45;3.10;;;15.60;87.90;;;;;;5038665;28;20033;-84
2022/06/17 01:51:28;;;;;;;7.82;2.92;;;15.50;88.20;;;;;;5021390;28;20463;-83
2022/06/17 01:53:57;;;;;;;6.63;3.22;;;15.50;88.50;;;;;;5017973;28;20061;-83
2022/06/17 01:56:28;;;;;;;4.68;2.90;;;15.50;88.40;;;;;;5016397;28;20030;-83
2022/06/17 01:59:17;;;;;;;9.00;3.30;;;15.50;88.50;;;;;;5015536;28;20029;-84
2022/06/17 02:01:47;;;;;;;5.25;2.90;;;15.50;88.90;;;;;;5015466;28;20030;-84
2022/06/17 02:04:20;;;;;;;6.97;2.78;;;15.50;88.90;;;;;;5013785;28;20164;-82
2022/06/17 02:06:49;;;;;;;12.38;3.10;;;15.50;89.10;;;;;;5014272;28;20062;-82
2022/06/17 02:09:16;;;;;;;7.40;3.20;;;15.50;89.30;;;;;;5029426;28;20037;-82
2022/06/17 02:11:42;;;;;;;3.88;2.83;;;15.40;89.70;;;;;;5014118;28;20026;-82
2022/06/17 02:14:09;;;;;;;11.63;3.38;;;15.40;89.80;;;;;;5013752;28;20361;-82
2022/06/17 02:16:45;;;;;;;7.23;3.53;;;15.40;90.00;;;;;;5013575;28;20022;-81
2022/06/17 02:19:12;;;;;;;5.60;2.88;;;15.30;90.20;;;;;;5013398;28;20104;-82
2022/06/17 02:21:53;;;;;;;5.93;2.80;;;15.30;90.20;;;;;;5012514;28;20372;-82
2022/06/17 02:24:20;;;;;;;6.18;3.13;;;15.30;90.20;;;;;;5013035;28;20319;-82
2022/06/17 02:26:47;;;;;;;10.33;3.30;;;15.30;90.30;;;;;;5013045;28;20049;-82
2022/06/17 02:29:14;;;;;;;8.55;3.78;;;15.20;90.40;;;;;;5028376;28;20263;-81
2022/06/17 02:31:42;;;;;;;4.53;2.58;;;15.20;90.60;;;;;;5012794;28;20487;-82
2022/06/17 02:34:14;;;;;;;9.82;3.15;;;15.20;90.60;;;;;;5012782;28;20045;-83
2022/06/17 02:36:58;;;;;;;9.55;3.05;;;15.10;90.70;;;;;;5013665;28;20057;-81
2022/06/17 02:39:26;;;;;;;12.88;3.30;;;15.10;90.70;;;;;;5013482;28;20096;-82
2022/06/17 02:41:52;;;;;;;8.10;2.70;;;15.10;90.90;;;;;;5013335;28;20440;-82
2022/06/17 02:44:28;;;;;;;5.07;3.03;;;15.10;91.00;;;;;;5013293;28;20048;-82
2022/06/17 02:46:56;;;;;;;5.57;3.28;;;15.00;91.00;;;;;;5028712;28;20092;-83
2022/06/17 02:49:25;;;;;;;7.75;3.15;;;15.00;91.50;;;;;;5012930;28;20436;-86
2022/06/17 02:51:51;;;;;;;7.70;3.08;;;14.90;91.30;;;;;;5013497;28;20105;-84
2022/06/17 02:54:40;;;;;;;5.10;2.90;;;14.90;91.40;;;;;;5013207;28;20170;-85
2022/06/17 02:57:16;;;;;;;10.95;3.35;;;14.90;91.40;;;;;;5012738;28;20038;-84
2022/06/17 02:59:48;;;;;;;6.53;3.22;;;14.90;91.50;;;;;;5012748;28;20037;-86
2022/06/17 03:02:33;;;;;;;5.40;2.85;;;14.90;91.40;;;;;;5013124;28;20119;-85
2022/06/17 03:04:59;;;;;;;5.20;2.97;;;14.90;91.50;;;;;;5012500;28;20037;-84
2022/06/17 03:07:29;;;;;;;7.30;3.10;;;14.90;91.60;;;;;;5008183;28;20433;-83
2022/06/17 03:09:55;;;;;;;8.73;3.67;;;14.90;91.50;;;;;;5008589;28;20052;-85
2022/06/17 03:12:28;;;;;;;5.50;3.58;;;14.90;91.70;;;;;;5011328;28;20460;-85
2022/06/17 03:15:12;;;;;;;5.25;2.70;;;14.90;91.70;;;;;;5012365;28;20480;-84
2022/06/17 03:17:41;;;;;;;6.25;2.97;;;14.90;91.80;;;;;;5012739;28;20474;-85
2022/06/17 03:20:11;;;;;;;8.52;2.78;;;14.80;91.90;;;;;;5012495;28;20388;-85
2022/06/17 03:22:38;;;;;;;12.20;3.25;;;14.90;91.80;;;;;;5012171;28;20033;-83
2022/06/17 03:25:13;;;;;;;7.82;3.20;;;14.80;91.90;;;;;;5011994;28;20478;-83
2022/06/17 03:27:51;;;;;;;10.32;3.28;;;14.90;91.90;;;;;;5012517;28;20026;-84
2022/06/17 03:30:28;;;;;;;8.02;2.70;;;14.90;92.10;;;;;;5012327;28;20117;-82
2022/06/17 03:33:20;;;;;;;5.38;2.67;;;14.90;92.20;;;;;;5012087;28;20046;-84
2022/06/17 03:35:49;;;;;;;4.63;2.78;;;14.90;92.30;;;;;;5012286;28;20077;-85
2022/06/17 03:38:23;;;;;;;6.50;3.15;;;14.90;92.20;;;;;;5012144;28;20640;-85
2022/06/17 03:40:54;;;;;;;8.35;3.15;;;14.90;92.30;;;;;;5011915;28;20467;-83
2022/06/17 03:43:31;;;;;;;4.20;3.22;;;14.90;92.40;;;;;;5027522;28;20047;-86
2022/06/17 03:46:01;;;;;;;5.13;2.60;;;14.90;92.30;;;;;;5027987;28;20414;-84
2022/06/17 03:48:55;;;;;;;7.13;3.10;;;14.90;92.40;;;;;;5013129;28;20105;-86
2022/06/17 03:51:24;;;;;;;9.32;2.88;;;14.90;92.50;;;;;;5012123;28;20053;-86
2022/06/17 03:53:51;;;;;;;8.90;3.38;;;14.90;92.40;;;;;;5012708;28;20487;-84
2022/06/17 03:56:21;;;;;;;11.07;6.30;;;14.90;92.70;;;;;;5012085;28;20048;-84
2022/06/17 03:58:48;;;;;;;5.30;3.28;;;14.90;92.70;;;;;;5007527;28;20049;-83
2022/06/17 04:01:48;;;;;;;4.33;2.47;;;14.90;92.70;;;;;;4994773;28;20077;-82
2022/06/17 04:04:25;;;;;;;9.18;2.80;;;14.90;92.90;;;;;;5011310;28;20055;-83
2022/06/17 04:06:53;;;;;;;6.30;2.55;;;15.00;92.90;;;;;;5012713;28;20033;-85
2022/06/17 04:09:24;;;;;;;6.50;3.42;;;15.10;92.90;;;;;;5027661;28;20042;-84
2022/06/17 04:11:54;;;;;;;7.90;2.95;;;15.10;92.80;;;;;;5011928;28;20363;-83
2022/06/17 04:14:27;;;;;;;7.05;3.10;;;15.20;92.90;;;;;;5011601;28;20088;-84
2022/06/17 04:17:01;;;;;;;6.97;2.70;;;15.20;92.90;;;;;;5011721;28;20029;-82
2022/06/17 04:19:28;;;;;;;7.50;3.28;;;15.30;92.80;;;;;;5011863;28;20553;-83
2022/06/17 04:22:01;;;;;;;5.72;3.13;;;15.40;92.70;;;;;;5012574;28;20018;-83
2022/06/17 04:24:29;;;;;;;5.82;2.95;;;15.50;92.70;;;;;;5011873;28;20026;-84
2022/06/17 04:26:59;;;;;;;6.90;3.00;;;15.50;92.90;;;;;;5011494;28;20037;-83
2022/06/17 04:29:37;;;;;;;10.75;3.85;;;15.50;92.80;;;;;;5007349;28;20600;-83
2022/06/17 04:32:28;;;;;;;10.07;3.40;;;15.60;92.90;;;;;;5000609;28;20477;-83
2022/06/17 04:34:53;;;;;;;7.88;3.78;;;15.60;93.00;;;;;;5011635;28;20372;-83
2022/06/17 04:37:22;;;;;;;3.92;2.50;;;15.70;93.10;;;;;;5010267;28;20091;-83
2022/06/17 04:39:57;;;;;;;8.45;3.08;;;15.70;93.20;;;;;;5011854;28;20041;-84
2022/06/17 04:42:43;;;;;;;6.40;2.85;;;15.80;93.10;;;;;;5027075;28;20037;-83
2022/06/17 04:45:21;;;;;;;6.38;2.45;;;15.80;93.10;;;;;;5011333;28;20030;-85
2022/06/17 04:47:47;;;;;;;13.25;3.20;;;15.80;93.20;;;;;;5012005;28;20034;-84
2022/06/17 04:50:17;;;;;;;4.05;2.60;;;15.80;93.10;;;;;;5011944;28;20362;-83
2022/06/17 04:52:45;;;;;;;20.10;4.65;;;15.80;93.40;;;;;;5012264;28;20037;-82
2022/06/17 04:55:21;;;;;;;15.18;4.13;;;15.90;93.40;;;;;;5011696;28;20481;-84
2022/06/17 04:57:48;;;;;;;7.60;3.35;;;16.00;93.30;;;;;;5012760;28;20333;-84
2022/06/17 05:00:20;;;;;;;9.95;3.65;;;16.20;93.10;;;;;;5007750;28;20022;-83
2022/06/17 05:02:46;;;;;;;3.95;2.63;;;16.30;93.20;;;;;;5006295;28;20033;-84
2022/06/17 05:05:19;;;;;;;9.57;3.63;;;16.30;93.20;;;;;;5012608;28;20045;-84
2022/06/17 05:07:49;;;;;;;7.88;3.05;;;16.40;93.20;;;;;;5013605;28;20050;-81
2022/06/17 05:10:37;;;;;;;7.57;3.08;;;16.40;93.10;;;;;;5017191;28;20081;-86
2022/06/17 05:13:09;;;;;;;;;;;16.60;93.00;;;;;;5015250;28;20018;-84
2022/06/17 05:15:36;;;;;;;7.32;3.03;;;16.60;92.90;;;;;;5011992;28;19983;-85
2022/06/17 05:18:02;;;;;;;8.48;3.45;;;16.70;93.30;;;;;;5015152;28;20042;-84
2022/06/17 05:20:28;;;;;;;10.65;3.28;;;16.80;93.10;;;;;;5030902;28;20034;-85
2022/06/17 05:23:01;;;;;;;8.07;3.10;;;16.80;93.00;;;;;;5015161;28;20048;-83
2022/06/17 05:25:40;;;;;;;10.73;3.75;;;16.90;92.90;;;;;;5015351;28;20033;-84
2022/06/17 05:28:10;;;;;;;9.02;3.05;;;17.00;92.70;;;;;;5014338;28;20033;-85
2022/06/17 05:30:39;;;;;;;10.18;3.13;;;17.10;92.30;;;;;;5016259;28;20029;-85
2022/06/17 05:33:05;;;;;;;6.32;2.97;;;17.30;91.90;;;;;;5017136;28;20050;-87
2022/06/17 05:35:31;;;;;;;7.38;3.17;;;17.40;91.50;;;;;;5018815;28;20508;-85
2022/06/17 05:37:57;;;;;;;11.45;5.13;;;17.50;91.20;;;;;;5017126;28;20117;-84
2022/06/17 05:40:23;;;;;;;8.90;3.10;;;17.60;91.20;;;;;;5016714;28;20116;-76
2022/06/17 05:42:52;;;;;;;7.57;3.88;;;17.70;91.30;;;;;;5014681;28;20054;-78
2022/06/17 05:45:23;;;;;;;9.95;4.20;;;17.80;91.10;;;;;;5016147;28;20026;-79
2022/06/17 05:47:48;;;;;;;9.57;4.15;;;17.90;90.60;;;;;;5014917;28;20106;-78
2022/06/17 05:50:18;;;;;;;8.18;3.20;;;18.00;90.40;;;;;;5014217;28;20401;-80
2022/06/17 05:53:05;;;;;;;7.47;2.83;;;18.20;90.30;;;;;;5015160;28;20474;-81
2022/06/17 05:55:33;;;;;;;7.35;3.15;;;18.40;90.20;;;;;;5011402;28;20054;-77
2022/06/17 05:57:58;;;;;;;9.18;3.17;;;18.60;89.20;;;;;;5009695;28;20038;-77
2022/06/17 06:00:25;;;;;;;12.23;3.13;;;18.70;87.50;;;;;;5029942;28;20022;-78
2022/06/17 06:02:56;;;;;;;16.25;3.75;;;18.90;86.50;;;;;;5014207;28;20034;-79
2022/06/17 06:05:24;;;;;;;8.48;3.03;;;19.10;85.80;;;;;;5016732;28;20081;-81
2022/06/17 06:07:50;;;;;;;;;;;19.10;84.80;;;;;;5014574;28;20026;-77
2022/06/17 06:10:17;;;;;;;8.57;2.60;;;19.10;83.80;;;;;;5013927;28;20249;-78
2022/06/17 06:13:03;;;;;;;6.18;3.20;;;19.20;83.90;;;;;;5014832;28;20025;-79
2022/06/17 06:15:38;;;;;;;8.23;2.65;;;19.20;84.00;;;;;;5013763;28;20037;-78
2022/06/17 06:18:05;;;;;;;8.95;3.13;;;19.10;83.90;;;;;;5013996;28;20475;-77
2022/06/17 06:20:31;;;;;;;11.40;3.38;;;19.10;84.00;;;;;;5013693;28;20053;-76
2022/06/17 06:22:56;;;;;;;9.63;3.47;;;19.10;83.10;;;;;;5013399;28;20038;-73
2022/06/17 06:25:23;;;;;;;5.90;2.83;;;19.10;83.40;;;;;;5028952;28;20034;-74
2022/06/17 06:27:49;;;;;;;12.77;3.40;;;19.30;82.60;;;;;;5013637;28;20030;-75
2022/06/17 06:30:23;;;;;;;9.52;3.30;;;19.50;81.60;;;;;;5013637;28;20037;-72
2022/06/17 06:32:51;;;;;;;13.65;3.88;;;19.60;79.80;;;;;;5013341;28;20491;-76
2022/06/17 06:35:18;;;;;;;7.78;3.05;;;19.60;79.10;;;;;;5028734;28;20034;-76
2022/06/17 06:37:43;;;;;;;4.45;2.58;;;19.70;77.70;;;;;;5013226;28;20105;-76
2022/06/17 06:40:10;;;;;;;11.02;3.08;;;19.80;77.80;;;;;;5012950;28;20389;-77
2022/06/17 06:42:36;;;;;;;4.18;2.58;;;19.80;75.20;;;;;;5013496;28;20096;-79
2022/06/17 06:45:02;;;;;;;10.43;4.13;;;19.70;74.50;;;;;;5008667;28;20106;-75
2022/06/17 06:47:28;;;;;;;8.35;4.72;;;19.80;74.80;;;;;;5006142;28;20093;-80
2022/06/17 06:49:54;;;;;;;5.97;2.60;;;19.80;74.60;;;;;;5028580;28;20022;-79
2022/06/17 06:52:19;;;;;;;11.15;2.78;;;19.80;75.10;;;;;;5012917;28;20037;-76
2022/06/17 06:54:45;;;;;;;8.90;2.42;;;19.80;75.90;;;;;;5013453;28;20022;-76
2022/06/17 06:57:11;;;;;;;8.70;2.45;;;19.80;75.50;;;;;;5012688;28;20061;-76
2022/06/17 06:59:37;;;;;;;14.15;3.55;;;19.80;74.70;;;;;;5013233;28;20126;-75
2022/06/17 07:02:03;;;;;;;7.05;2.63;;;19.80;74.80;;;;;;5013016;28;20049;-73
2022/06/17 07:04:28;;;;;;;9.77;3.63;;;20.00;75.20;;;;;;5008351;28;20026;-75
2022/06/17 07:06:54;;;;;;;6.72;2.45;;;20.10;74.80;;;;;;4993299;28;20022;-74
2022/06/17 07:09:22;;;;;;;8.05;2.15;;;20.30;74.30;;;;;;5013150;28;20041;-76
2022/06/17 07:11:47;;;;;;;12.05;3.03;;;20.30;72.40;;;;;;5012807;28;20375;-77
2022/06/17 07:14:13;;;;;;;6.00;2.45;;;20.40;72.80;;;;;;5012578;28;20033;-77
2022/06/17 07:16:39;;;;;;;5.65;2.50;;;20.80;70.90;;;;;;5012559;28;20112;-76
2022/06/17 07:19:07;;;;;;;4.13;2.33;;;20.90;69.40;;;;;;5012434;28;20025;-75
2022/06/17 07:21:34;;;;;;;7.50;3.40;;;20.80;69.60;;;;;;5012564;28;20520;-73
2022/06/17 07:23:59;;;;;;;5.43;2.22;;;20.90;69.70;;;;;;5012212;28;20045;-73
2022/06/17 07:26:26;;;;;;;5.80;2.25;;;21.00;71.10;;;;;;5008126;28;20054;-74
2022/06/17 07:28:53;;;;;;;3.42;2.42;;;21.10;71.50;;;;;;5007480;28;20038;-73
2022/06/17 07:31:21;;;;;;;9.43;2.53;;;21.10;69.70;;;;;;4995272;28;20022;-76
2022/06/17 07:33:47;;;;;;;7.00;2.67;;;21.10;68.20;;;;;;5012176;28;20057;-74
2022/06/17 07:41:44;;;;;;;9.25;2.33;;;21.30;68.20;;;;;;5012267;28;20048;-75
2022/06/17 07:44:10;;;;;;;7.07;2.50;;;21.30;67.60;;;;;;5011631;28;20030;-74
2022/06/17 07:46:36;;;;;;;5.38;2.15;;;21.50;66.50;;;;;;5011736;28;20045;-72
2022/06/17 07:49:01;;;;;;;8.88;2.88;;;21.60;66.90;;;;;;5011656;28;20104;-74
2022/06/17 07:51:27;;;;;;;6.45;2.10;;;21.80;67.70;;;;;;5011980;28;20427;-75
2022/06/17 07:53:53;;;;;;;3.88;2.25;;;21.90;67.40;;;;;;5011621;28;20030;-75
2022/06/17 07:56:20;;;;;;;3.88;2.17;;;22.10;66.30;;;;;;5011597;28;20030;-72
2022/06/17 07:58:46;;;;;;;13.20;6.40;;;22.10;65.30;;;;;;5011656;28;20128;-73
2022/06/17 08:01:13;;;;;;;6.55;3.08;;;22.20;65.10;;;;;;5011559;28;20117;-75
2022/06/17 08:03:39;;;;;;;4.50;1.60;;;22.20;63.60;;;;;;5011866;28;20036;-75
2022/06/17 08:06:05;;;;;;;5.70;1.83;;;22.40;63.70;;;;;;5026971;28;20048;-75
2022/06/17 08:08:32;;;;;;;4.75;2.20;;;22.80;63.80;;;;;;5011488;28;20030;-74
2022/06/17 08:11:00;;;;;;;6.88;3.63;;;23.10;62.70;;;;;;5011336;28;20022;-74
2022/06/17 08:13:26;;;;;;;;;;;23.80;62.20;;;;;;5011949;28;20048;-73
2022/06/17 08:15:55;;;;;;;3.30;1.48;;;24.90;62.60;;;;;;5011819;28;19972;-73
2022/06/17 08:18:21;;;;;;;8.73;2.33;;;25.80;59.50;;;;;;5026247;28;20030;-74
2022/06/17 08:20:48;;;;;;;8.63;2.30;;;26.40;59.40;;;;;;5011036;28;20030;-72
2022/06/17 08:23:14;;;;;;;6.20;1.88;;;27.10;56.10;;;;;;5026293;28;20072;-71
2022/06/17 08:25:40;;;;;;;2.90;1.65;;;27.20;55.20;;;;;;5010938;28;20415;-72
2022/06/17 08:28:08;;;;;;;3.28;1.63;;;28.00;54.20;;;;;;5010669;28;20061;-72
2022/06/17 08:30:39;;;;;;;8.43;2.10;;;27.60;52.60;;;;;;5011121;28;20109;-72
2022/06/17 08:33:05;;;;;;;4.28;1.98;;;27.10;52.90;;;;;;5010536;28;20451;-72
2022/06/17 08:35:38;;;;;;;8.35;2.15;;;26.90;53.60;;;;;;5010421;28;20256;-72
2022/06/17 08:38:09;;;;;;;5.97;1.95;;;27.40;52.90;;;;;;5010691;28;20034;-74
2022/06/17 08:40:52;;;;;;;5.55;1.88;;;27.20;53.30;;;;;;5010875;28;20149;-72
2022/06/17 08:43:55;;;;;;;5.15;2.00;;;27.00;54.10;;;;;;5026064;28;20092;-75
2022/06/17 08:46:41;;;;;;;4.40;1.73;;;27.10;53.70;;;;;;5011335;28;20125;-74
2022/06/17 08:49:44;;;;;;;5.63;1.77;;;26.80;52.70;;;;;;5011327;28;20349;-74
2022/06/17 08:52:46;;;;;;;2.70;1.48;;;26.70;53.20;;;;;;5014914;28;20026;-74
2022/06/17 08:55:26;;;;;;;4.47;1.90;;;26.80;55.00;;;;;;5014935;28;20022;-75
2022/06/17 08:58:00;;;;;;;10.57;2.00;;;27.80;51.80;;;;;;5015303;28;20309;-74
2022/06/17 09:01:05;;;;;;;4.78;1.52;;;28.50;50.90;;;;;;5015121;28;20095;-75
2022/06/17 09:03:46;;;;;;;3.03;1.50;;;28.80;49.80;;;;;;5014354;28;20067;-74
2022/06/17 09:06:24;;;;;;;9.38;4.85;;;28.00;50.30;;;;;;5014891;28;20156;-78
2022/06/17 09:09:07;;;;;;;3.45;1.88;;;28.10;50.40;;;;;;5014776;28;20368;-77
2022/06/17 09:11:56;;;;;;;5.47;2.00;;;28.60;49.90;;;;;;5014443;28;20026;-77
2022/06/17 09:14:27;;;;;;;3.08;1.48;;;28.80;51.30;;;;;;5013729;28;20089;-74
2022/06/17 09:17:31;;;;;;;3.90;2.03;;;29.00;49.20;;;;;;5030087;28;20359;-75
2022/06/17 09:20:02;;;;;;;7.90;1.73;;;29.10;49.00;;;;;;5012304;28;20033;-72
2022/06/17 09:22:33;;;;;;;4.43;1.83;;;28.80;49.00;;;;;;5013911;28;20478;-71
2022/06/17 09:25:10;;;;;;;6.53;1.95;;;28.80;49.10;;;;;;5014408;28;20040;-71
2022/06/17 09:27:40;;;;;;;4.50;1.48;;;28.60;50.00;;;;;;5014722;28;20452;-75
2022/06/17 09:30:19;;;;;;;2.92;1.88;;;28.40;49.30;;;;;;5014799;28;20042;-73
2022/06/17 09:32:58;;;;;;;4.22;1.90;;;27.60;49.10;;;;;;5013971;28;20306;-74
2022/06/17 09:35:45;;;;;;;3.67;1.90;;;27.90;50.60;;;;;;5014083;28;20076;-75
2022/06/17 09:38:23;;;;;;;6.55;1.80;;;28.40;50.30;;;;;;5013971;28;20464;-73
2022/06/17 09:41:20;;;;;;;3.50;1.88;;;28.00;49.70;;;;;;5013798;28;20112;-74
2022/06/17 09:44:02;;;;;;;4.22;1.88;;;27.90;50.00;;;;;;5011449;28;20040;-75
2022/06/17 09:46:43;;;;;;;13.65;2.42;;;27.80;50.00;;;;;;5013545;28;20117;-74
2022/06/17 09:49:28;;;;;;;6.15;2.00;;;27.40;50.10;;;;;;5029138;28;20124;-74
2022/06/17 09:52:00;;;;;;;4.57;2.08;;;26.90;50.90;;;;;;5013914;28;20034;-74
2022/06/17 09:54:34;;;;;;;6.28;1.73;;;27.00;51.20;;;;;;5028924;28;20044;-73
2022/06/17 09:57:08;;;;;;;3.17;1.50;;;27.10;50.60;;;;;;5013097;28;20033;-72
2022/06/17 09:59:46;;;;;;;6.28;1.98;;;26.90;49.50;;;;;;5013323;28;20045;-74
2022/06/17 10:02:41;;;;;;;6.43;1.88;;;27.00;50.70;;;;;;5012047;28;20073;-74
2022/06/17 10:05:43;;;;;;;7.07;2.53;;;27.50;50.40;;;;;;5011562;28;20856;-74
2022/06/17 10:08:19;;;;;;;5.30;1.75;;;27.60;51.20;;;;;;5012495;28;20164;-71
2022/06/17 10:11:05;;;;;;;4.40;2.00;;;27.60;51.70;;;;;;5013299;28;20026;-72
2022/06/17 10:13:52;;;;;;;5.95;1.92;;;27.20;52.60;;;;;;5013098;28;20041;-73
2022/06/17 10:19:50;;;;;;;8.57;2.58;;;27.50;53.00;;;;;;5001091;28;20026;-72
2022/06/17 10:22:16;;;;;;;4.30;2.15;;;27.40;51.60;;;;;;5013085;28;20045;-71
2022/06/17 10:25:08;;;;;;;8.10;2.15;;;27.00;52.30;;;;;;5013235;28;20109;-71
2022/06/17 10:28:18;;;;;;;8.38;2.60;;;26.90;52.50;;;;;;5010618;28;20029;-72
2022/06/17 10:31:18;;;;;;;7.93;1.90;;;26.40;51.80;;;;;;5011737;28;20046;-70
2022/06/17 10:33:44;;;;;;;5.10;1.80;;;26.70;53.50;;;;;;5012638;28;20133;-72
2022/06/17 10:36:10;;;;;;;5.03;2.05;;;26.80;51.80;;;;;;5012767;28;20034;-70
2022/06/17 10:38:41;;;;;;;4.70;1.92;;;26.60;51.90;;;;;;5012658;28;20042;-71
2022/06/17 10:41:09;;;;;;;7.85;2.20;;;26.50;52.50;;;;;;5012418;28;20152;-71
2022/06/17 10:43:45;;;;;;;3.30;1.50;;;26.50;52.60;;;;;;5012331;28;20034;-70
2022/06/17 10:46:28;;;;;;;5.93;2.05;;;26.20;53.70;;;;;;5027780;28;20034;-70
2022/06/17 10:49:09;;;;;;;6.28;3.47;;;26.40;52.90;;;;;;5012485;28;20532;-71
2022/06/17 10:51:36;;;;;;;12.32;3.88;;;26.30;53.40;;;;;;5028108;28;20061;-71
2022/06/17 10:54:31;;;;;;;5.32;3.08;;;26.30;52.50;;;;;;5012036;28;20412;-70
2022/06/17 10:57:06;;;;;;;2.50;1.60;;;26.40;52.50;;;;;;5012306;28;20100;-70
2022/06/17 10:59:39;;;;;;;3.70;1.92;;;26.40;52.90;;;;;;5012000;28;20022;-70
2022/06/17 11:02:23;;;;;;;10.80;2.00;;;26.50;52.10;;;;;;5012134;28;20516;-70
2022/06/17 11:05:08;;;;;;;4.93;1.92;;;26.20;52.30;;;;;;5011969;28;20419;-73
2022/06/17 11:07:39;;;;;;;4.53;1.55;;;26.50;52.20;;;;;;5011947;28;20037;-72
2022/06/17 11:10:14;;;;;;;4.93;1.65;;;26.40;51.00;;;;;;5012139;28;20133;-73
2022/06/17 11:12:59;;;;;;;11.63;2.35;;;26.50;51.10;;;;;;5012686;28;20023;-74
2022/06/17 11:15:27;;;;;;;11.75;2.22;;;26.70;50.90;;;;;;5011398;28;20124;-71
2022/06/17 11:17:57;;;;;;;4.25;2.83;;;26.70;50.50;;;;;;5012344;28;20261;-74
2022/06/17 11:20:26;;;;;;;2.70;1.63;;;26.50;51.20;;;;;;5012219;28;20399;-70
2022/06/17 11:22:54;;;;;;;5.70;1.90;;;26.40;52.00;;;;;;5012285;28;20472;-70
2022/06/17 11:25:27;;;;;;;3.63;1.58;;;26.40;52.00;;;;;;5011817;28;20452;-70
2022/06/17 11:28:19;;;;;;;5.38;1.67;;;26.30;51.50;;;;;;5011108;28;20109;-71
2022/06/17 11:30:57;;;;;;;4.53;1.67;;;26.20;51.90;;;;;;5011813;28;20042;-70
2022/06/17 11:33:24;;;;;;;6.82;2.20;;;26.20;51.80;;;;;;5011877;28;20241;-69
2022/06/17 11:36:09;;;;;;;9.63;2.75;;;25.90;52.20;;;;;;5011968;28;20105;-71
2022/06/17 11:38:35;;;;;;;5.38;2.35;;;26.00;52.60;;;;;;5011578;28;20045;-71
2022/06/17 11:41:01;;;;;;;5.03;2.05;;;26.30;52.90;;;;;;5011339;28;20038;-70
2022/06/17 11:43:33;;;;;;;4.30;1.65;;;26.40;52.60;;;;;;5011756;28;20048;-71
2022/06/17 11:46:07;;;;;;;2.65;1.58;;;26.30;52.50;;;;;;5011646;28;20196;-70
2022/06/17 11:48:33;;;;;;;5.63;1.90;;;26.30;53.10;;;;;;5011582;28;20025;-71
2022/06/17 11:51:23;;;;;;;4.05;1.70;;;26.40;53.50;;;;;;5011609;28;20041;-72
2022/06/17 11:54:01;;;;;;;4.30;1.60;;;26.30;53.20;;;;;;5011453;28;20073;-71
2022/06/17 11:56:48;;;;;;;5.88;1.65;;;26.20;53.30;;;;;;5011457;28;20168;-70
2022/06/17 11:59:23;;;;;;;3.40;1.38;;;26.30;53.60;;;;;;5011356;28;20037;-72
2022/06/17 12:01:55;;;;;;;2.97;1.38;;;26.30;53.60;;;;;;5011319;28;20034;-72
2022/06/17 12:04:41;;;;;;;5.03;1.90;;;26.30;53.30;;;;;;5011109;28;20478;-70
2022/06/17 12:07:31;;;;;;;3.45;2.65;;;26.40;53.30;;;;;;5010073;28;20024;-71
2022/06/17 12:10:32;;;;;;;4.50;1.92;;;26.40;53.10;;;;;;5011106;28;20022;-75
2022/06/17 12:13:18;;;;;;;4.20;1.90;;;26.50;53.00;;;;;;5009913;28;20030;-73
2022/06/17 12:16:11;;;;;;;3.47;1.58;;;26.30;53.00;;;;;;5011858;28;20038;-73
2022/06/17 12:18:43;;;;;;;3.72;1.70;;;26.20;53.80;;;;;;5010250;28;20042;-74
2022/06/17 12:21:08;;;;;;;4.07;1.88;;;26.50;53.80;;;;;;5011052;28;20038;-73
2022/06/17 12:23:43;;;;;;;5.88;2.10;;;26.60;54.50;;;;;;5011071;28;20034;-73
2022/06/17 12:26:31;;;;;;;4.28;1.90;;;26.60;54.50;;;;;;5010605;28;20113;-73
2022/06/17 12:29:19;;;;;;;4.82;1.75;;;26.60;54.40;;;;;;5010848;28;20026;-73
2022/06/17 12:31:52;;;;;;;2.03;1.33;;;26.70;54.30;;;;;;5011127;28;20018;-74
2022/06/17 12:34:46;;;;;;;4.88;1.65;;;26.70;54.10;;;;;;5011068;28;20073;-72
2022/06/17 12:37:25;;;;;;;2.63;1.73;;;26.70;54.20;;;;;;5010321;28;20305;-73
2022/06/17 12:40:18;;;;;;;3.90;1.58;;;26.70;54.40;;;;;;5012014;28;20034;-74
2022/06/17 12:43:03;;;;;;;2.78;1.50;;;26.70;54.60;;;;;;5011013;28;20037;-71
2022/06/17 12:45:50;;;;;;;5.70;2.00;;;26.60;54.00;;;;;;5011233;28;20425;-74
2022/06/17 12:48:32;;;;;;;3.10;2.17;;;26.60;54.30;;;;;;5010713;28;20577;-73
2022/06/17 12:54:04;;;;;;;4.72;2.15;;;26.50;53.90;;;;;;5010351;28;20663;-72
2022/06/17 12:56:51;;;;;;;6.43;2.22;;;26.50;53.80;;;;;;5010485;28;20077;-73
2022/06/17 12:59:42;;;;;;;5.28;2.40;;;26.50;53.60;;;;;;5010618;28;20515;-74
2022/06/17 13:02:21;;;;;;;3.67;2.20;;;26.40;53.40;;;;;;5025848;28;20057;-73
2022/06/17 13:05:23;;;;;;;6.85;2.00;;;26.30;53.40;;;;;;5010680;28;20030;-73
2022/06/17 13:08:20;;;;;;;2.60;1.58;;;26.40;53.50;;;;;;5010576;28;20037;-72
2022/06/17 13:11:11;;;;;;;3.17;1.77;;;26.60;53.30;;;;;;5009255;28;20084;-72
2022/06/17 13:13:56;;;;;;;4.95;2.20;;;26.60;52.80;;;;;;5010422;28;20030;-73
2022/06/17 13:16:28;;;;;;;6.63;3.05;;;26.50;52.70;;;;;;5010350;28;20056;-75
2022/06/17 13:18:57;;;;;;;2.50;1.30;;;26.30;53.10;;;;;;5010797;28;20028;-74
2022/06/17 13:21:45;;;;;;;3.05;2.10;;;26.30;52.70;;;;;;5010449;28;20091;-74
2022/06/17 13:24:16;;;;;;;5.68;1.70;;;26.30;53.20;;;;;;5010239;28;20029;-74
2022/06/17 13:26:56;;;;;;;2.13;1.20;;;26.30;53.70;;;;;;5009959;28;20439;-74
2022/06/17 13:29:43;;;;;;;5.95;1.33;;;26.30;53.20;;;;;;5025606;28;20042;-73
2022/06/17 13:32:20;;;;;;;2.83;1.73;;;26.20;52.60;;;;;;5010184;28;20054;-68
2022/06/17 13:34:58;;;;;;;2.80;1.40;;;26.20;52.80;;;;;;5010240;28;20060;-71
2022/06/17 13:37:41;;;;;;;4.90;2.00;;;26.20;53.60;;;;;;5011045;28;20029;-71